sensor_id;sensor_type;location;lat;lon;timestamp;temperature;humidity
12622;DHT22;6376;48.182;-1.644;2023-04-26T00:01:22;15.00;73.60
12622;DHT22;6376;48.182;-1.644;2023-04-26T00:03:48;14.90;73.50
12622;DHT22;6376;48.182;-1.644;2023-04-26T00:06:14;14.90;73.60
12622;DHT22;6376;48.182;-1.644;2023-04-26T00:08:40;14.90;73.60
12622;DHT22;6376;48.182;-1.644;2023-04-26T00:11:07;14.90;73.70
12622;DHT22;6376;48.182;-1.644;2023-04-26T00:13:33;14.90;73.70
12622;DHT22;6376;48.182;-1.644;2023-04-26T00:15:59;14.90;73.70
12622;DHT22;6376;48.182;-1.644;2023-04-26T00:18:24;14.90;73.80
12622;DHT22;6376;48.182;-1.644;2023-04-26T00:20:50;14.90;73.70
12622;DHT22;6376;48.182;-1.644;2023-04-26T00:23:16;14.90;73.80
12622;DHT22;6376;48.182;-1.644;2023-04-26T00:25:42;14.90;73.80
12622;DHT22;6376;48.182;-1.644;2023-04-26T00:28:08;14.90;73.90
12622;DHT22;6376;48.182;-1.644;2023-04-26T00:30:34;14.90;73.90
12622;DHT22;6376;48.182;-1.644;2023-04-26T00:33:02;14.90;73.70
12622;DHT22;6376;48.182;-1.644;2023-04-26T00:35:28;14.90;74.00
12622;DHT22;6376;48.182;-1.644;2023-04-26T00:37:53;14.80;74.00
12622;DHT22;6376;48.182;-1.644;2023-04-26T00:40:19;14.80;73.90
12622;DHT22;6376;48.182;-1.644;2023-04-26T00:42:45;14.80;74.00
12622;DHT22;6376;48.182;-1.644;2023-04-26T00:45:10;14.80;74.00
12622;DHT22;6376;48.182;-1.644;2023-04-26T00:47:36;14.80;74.00
12622;DHT22;6376;48.182;-1.644;2023-04-26T00:50:02;14.80;74.00
12622;DHT22;6376;48.182;-1.644;2023-04-26T00:52:29;14.80;74.10
12622;DHT22;6376;48.182;-1.644;2023-04-26T00:54:56;14.80;74.10
12622;DHT22;6376;48.182;-1.644;2023-04-26T00:57:22;14.80;74.10
12622;DHT22;6376;48.182;-1.644;2023-04-26T00:59:48;14.80;74.00
12622;DHT22;6376;48.182;-1.644;2023-04-26T01:02:14;14.80;74.00
12622;DHT22;6376;48.182;-1.644;2023-04-26T01:04:40;14.80;74.20
12622;DHT22;6376;48.182;-1.644;2023-04-26T01:07:06;14.70;74.10
12622;DHT22;6376;48.182;-1.644;2023-04-26T01:09:32;14.70;74.20
12622;DHT22;6376;48.182;-1.644;2023-04-26T01:11:59;14.70;74.20
12622;DHT22;6376;48.182;-1.644;2023-04-26T01:14:25;14.70;74.30
12622;DHT22;6376;48.182;-1.644;2023-04-26T01:16:51;14.70;74.30
12622;DHT22;6376;48.182;-1.644;2023-04-26T01:19:17;14.70;74.30
12622;DHT22;6376;48.182;-1.644;2023-04-26T01:21:43;14.70;74.30
12622;DHT22;6376;48.182;-1.644;2023-04-26T01:24:11;14.70;74.30
12622;DHT22;6376;48.182;-1.644;2023-04-26T01:26:37;14.70;74.30
12622;DHT22;6376;48.182;-1.644;2023-04-26T01:29:17;14.70;74.20
12622;DHT22;6376;48.182;-1.644;2023-04-26T01:31:43;14.70;74.40
12622;DHT22;6376;48.182;-1.644;2023-04-26T01:34:09;14.70;74.40
12622;DHT22;6376;48.182;-1.644;2023-04-26T01:36:35;14.70;74.30
12622;DHT22;6376;48.182;-1.644;2023-04-26T01:39:00;14.70;74.40
12622;DHT22;6376;48.182;-1.644;2023-04-26T01:41:26;14.60;74.30
12622;DHT22;6376;48.182;-1.644;2023-04-26T01:43:52;14.70;74.40
12622;DHT22;6376;48.182;-1.644;2023-04-26T01:46:18;14.60;74.40
12622;DHT22;6376;48.182;-1.644;2023-04-26T01:48:43;14.60;74.40
12622;DHT22;6376;48.182;-1.644;2023-04-26T01:51:09;14.60;74.50
12622;DHT22;6376;48.182;-1.644;2023-04-26T01:53:35;14.60;74.50
12622;DHT22;6376;48.182;-1.644;2023-04-26T01:56:01;14.60;74.30
12622;DHT22;6376;48.182;-1.644;2023-04-26T01:58:28;14.60;74.60
12622;DHT22;6376;48.182;-1.644;2023-04-26T02:00:53;14.60;74.50
12622;DHT22;6376;48.182;-1.644;2023-04-26T02:03:19;14.60;74.60
12622;DHT22;6376;48.182;-1.644;2023-04-26T02:05:45;14.60;74.40
12622;DHT22;6376;48.182;-1.644;2023-04-26T02:08:11;14.60;74.60
12622;DHT22;6376;48.182;-1.644;2023-04-26T02:10:37;14.60;74.50
12622;DHT22;6376;48.182;-1.644;2023-04-26T02:13:02;14.60;74.70
12622;DHT22;6376;48.182;-1.644;2023-04-26T02:15:28;14.60;74.70
12622;DHT22;6376;48.182;-1.644;2023-04-26T02:17:54;14.60;74.70
12622;DHT22;6376;48.182;-1.644;2023-04-26T02:20:20;14.60;74.70
12622;DHT22;6376;48.182;-1.644;2023-04-26T02:22:45;14.50;74.60
12622;DHT22;6376;48.182;-1.644;2023-04-26T02:25:11;14.50;74.70
12622;DHT22;6376;48.182;-1.644;2023-04-26T02:27:37;14.50;74.60
12622;DHT22;6376;48.182;-1.644;2023-04-26T02:30:04;14.50;74.80
12622;DHT22;6376;48.182;-1.644;2023-04-26T02:32:29;14.50;74.70
12622;DHT22;6376;48.182;-1.644;2023-04-26T02:34:55;14.50;74.70
12622;DHT22;6376;48.182;-1.644;2023-04-26T02:37:21;14.50;74.70
12622;DHT22;6376;48.182;-1.644;2023-04-26T02:39:50;14.50;74.70
12622;DHT22;6376;48.182;-1.644;2023-04-26T02:42:16;14.50;74.70
12622;DHT22;6376;48.182;-1.644;2023-04-26T02:44:42;14.50;74.80
12622;DHT22;6376;48.182;-1.644;2023-04-26T02:47:08;14.50;74.70
12622;DHT22;6376;48.182;-1.644;2023-04-26T02:49:33;14.50;74.80
12622;DHT22;6376;48.182;-1.644;2023-04-26T02:51:59;14.50;74.90
12622;DHT22;6376;48.182;-1.644;2023-04-26T02:54:25;14.50;74.80
12622;DHT22;6376;48.182;-1.644;2023-04-26T02:56:51;14.50;74.90
12622;DHT22;6376;48.182;-1.644;2023-04-26T02:59:16;14.50;74.90
12622;DHT22;6376;48.182;-1.644;2023-04-26T03:01:42;14.50;74.80
12622;DHT22;6376;48.182;-1.644;2023-04-26T03:04:08;14.40;74.80
12622;DHT22;6376;48.182;-1.644;2023-04-26T03:06:33;14.50;75.00
12622;DHT22;6376;48.182;-1.644;2023-04-26T03:08:59;14.40;74.80
12622;DHT22;6376;48.182;-1.644;2023-04-26T03:11:25;14.40;75.00
12622;DHT22;6376;48.182;-1.644;2023-04-26T03:13:50;14.40;74.80
12622;DHT22;6376;48.182;-1.644;2023-04-26T03:16:18;14.40;75.00
12622;DHT22;6376;48.182;-1.644;2023-04-26T03:18:45;14.40;75.00
12622;DHT22;6376;48.182;-1.644;2023-04-26T03:21:10;14.40;75.00
12622;DHT22;6376;48.182;-1.644;2023-04-26T03:23:36;14.40;75.80
12622;DHT22;6376;48.182;-1.644;2023-04-26T03:26:01;14.40;75.10
12622;DHT22;6376;48.182;-1.644;2023-04-26T03:28:28;14.40;75.10
12622;DHT22;6376;48.182;-1.644;2023-04-26T03:30:53;14.40;75.10
12622;DHT22;6376;48.182;-1.644;2023-04-26T03:33:19;14.40;75.10
12622;DHT22;6376;48.182;-1.644;2023-04-26T03:35:45;14.40;75.10
12622;DHT22;6376;48.182;-1.644;2023-04-26T03:38:11;14.40;75.20
12622;DHT22;6376;48.182;-1.644;2023-04-26T03:40:36;14.40;75.10
12622;DHT22;6376;48.182;-1.644;2023-04-26T03:43:02;14.40;75.10
12622;DHT22;6376;48.182;-1.644;2023-04-26T03:45:28;14.40;75.20
12622;DHT22;6376;48.182;-1.644;2023-04-26T03:47:53;14.40;75.20
12622;DHT22;6376;48.182;-1.644;2023-04-26T03:50:19;14.40;75.20
12622;DHT22;6376;48.182;-1.644;2023-04-26T03:52:45;14.30;75.10
12622;DHT22;6376;48.182;-1.644;2023-04-26T03:55:10;14.30;75.10
12622;DHT22;6376;48.182;-1.644;2023-04-26T03:57:37;14.40;75.20
12622;DHT22;6376;48.182;-1.644;2023-04-26T04:00:04;14.40;75.20
12622;DHT22;6376;48.182;-1.644;2023-04-26T04:02:40;14.30;75.20
12622;DHT22;6376;48.182;-1.644;2023-04-26T04:05:05;14.40;75.20
12622;DHT22;6376;48.182;-1.644;2023-04-26T04:07:32;14.30;75.20
12622;DHT22;6376;48.182;-1.644;2023-04-26T04:09:59;14.40;75.30
12622;DHT22;6376;48.182;-1.644;2023-04-26T04:12:25;14.30;75.30
12622;DHT22;6376;48.182;-1.644;2023-04-26T04:14:50;14.30;75.20
12622;DHT22;6376;48.182;-1.644;2023-04-26T04:17:17;14.30;75.30
12622;DHT22;6376;48.182;-1.644;2023-04-26T04:19:43;14.30;75.20
12622;DHT22;6376;48.182;-1.644;2023-04-26T04:22:10;14.30;75.40
12622;DHT22;6376;48.182;-1.644;2023-04-26T04:24:35;14.30;75.30
12622;DHT22;6376;48.182;-1.644;2023-04-26T04:27:02;14.30;75.20
12622;DHT22;6376;48.182;-1.644;2023-04-26T04:29:29;14.30;75.40
12622;DHT22;6376;48.182;-1.644;2023-04-26T04:31:57;14.30;75.40
12622;DHT22;6376;48.182;-1.644;2023-04-26T04:34:22;14.30;75.40
12622;DHT22;6376;48.182;-1.644;2023-04-26T04:36:48;14.30;75.40
12622;DHT22;6376;48.182;-1.644;2023-04-26T04:39:15;14.30;75.50
12622;DHT22;6376;48.182;-1.644;2023-04-26T04:41:41;14.30;75.40
12622;DHT22;6376;48.182;-1.644;2023-04-26T04:44:16;14.30;75.40
12622;DHT22;6376;48.182;-1.644;2023-04-26T04:46:43;14.30;75.50
12622;DHT22;6376;48.182;-1.644;2023-04-26T04:49:09;14.30;75.50
12622;DHT22;6376;48.182;-1.644;2023-04-26T04:51:35;14.30;75.50
12622;DHT22;6376;48.182;-1.644;2023-04-26T04:54:27;14.30;75.50
12622;DHT22;6376;48.182;-1.644;2023-04-26T04:56:53;14.20;75.50
12622;DHT22;6376;48.182;-1.644;2023-04-26T04:59:18;14.30;75.50
12622;DHT22;6376;48.182;-1.644;2023-04-26T05:01:44;14.30;75.60
12622;DHT22;6376;48.182;-1.644;2023-04-26T05:04:10;14.30;75.70
12622;DHT22;6376;48.182;-1.644;2023-04-26T05:06:35;14.20;75.60
12622;DHT22;6376;48.182;-1.644;2023-04-26T05:09:01;14.20;75.60
12622;DHT22;6376;48.182;-1.644;2023-04-26T05:11:27;14.30;75.70
12622;DHT22;6376;48.182;-1.644;2023-04-26T05:13:52;14.20;75.70
12622;DHT22;6376;48.182;-1.644;2023-04-26T05:16:18;14.20;75.70
12622;DHT22;6376;48.182;-1.644;2023-04-26T05:18:44;14.20;75.80
12622;DHT22;6376;48.182;-1.644;2023-04-26T05:21:10;14.20;75.70
12622;DHT22;6376;48.182;-1.644;2023-04-26T05:23:35;14.20;75.70
12622;DHT22;6376;48.182;-1.644;2023-04-26T05:26:02;14.20;75.70
12622;DHT22;6376;48.182;-1.644;2023-04-26T05:28:29;14.20;75.80
12622;DHT22;6376;48.182;-1.644;2023-04-26T05:30:55;14.20;75.70
12622;DHT22;6376;48.182;-1.644;2023-04-26T05:33:21;14.20;75.80
12622;DHT22;6376;48.182;-1.644;2023-04-26T05:35:47;14.20;75.80
12622;DHT22;6376;48.182;-1.644;2023-04-26T05:38:13;14.20;75.80
12622;DHT22;6376;48.182;-1.644;2023-04-26T05:40:38;14.20;75.90
12622;DHT22;6376;48.182;-1.644;2023-04-26T05:43:04;14.20;76.30
12622;DHT22;6376;48.182;-1.644;2023-04-26T05:45:29;14.20;75.90
12622;DHT22;6376;48.182;-1.644;2023-04-26T05:47:55;14.20;75.90
12622;DHT22;6376;48.182;-1.644;2023-04-26T05:50:21;14.20;75.90
12622;DHT22;6376;48.182;-1.644;2023-04-26T05:52:46;14.20;75.90
12622;DHT22;6376;48.182;-1.644;2023-04-26T05:55:12;14.20;76.00
12622;DHT22;6376;48.182;-1.644;2023-04-26T05:57:38;14.20;76.00
12622;DHT22;6376;48.182;-1.644;2023-04-26T06:00:04;14.20;76.00
12622;DHT22;6376;48.182;-1.644;2023-04-26T06:02:30;14.20;76.00
12622;DHT22;6376;48.182;-1.644;2023-04-26T06:04:56;14.20;76.00
12622;DHT22;6376;48.182;-1.644;2023-04-26T06:07:22;14.10;76.00
12622;DHT22;6376;48.182;-1.644;2023-04-26T06:09:47;14.20;76.10
12622;DHT22;6376;48.182;-1.644;2023-04-26T06:12:13;14.20;76.10
12622;DHT22;6376;48.182;-1.644;2023-04-26T06:14:39;14.10;76.10
12622;DHT22;6376;48.182;-1.644;2023-04-26T06:17:04;14.10;76.10
12622;DHT22;6376;48.182;-1.644;2023-04-26T06:19:30;14.10;76.10
12622;DHT22;6376;48.182;-1.644;2023-04-26T06:21:56;14.10;76.20
12622;DHT22;6376;48.182;-1.644;2023-04-26T06:24:24;14.10;76.10
12622;DHT22;6376;48.182;-1.644;2023-04-26T06:26:50;14.10;76.10
12622;DHT22;6376;48.182;-1.644;2023-04-26T06:29:16;14.10;76.20
12622;DHT22;6376;48.182;-1.644;2023-04-26T06:31:42;14.10;76.30
12622;DHT22;6376;48.182;-1.644;2023-04-26T06:34:08;14.10;76.30
12622;DHT22;6376;48.182;-1.644;2023-04-26T06:36:34;14.10;76.30
12622;DHT22;6376;48.182;-1.644;2023-04-26T06:39:00;14.10;76.30
12622;DHT22;6376;48.182;-1.644;2023-04-26T06:41:25;14.10;76.30
12622;DHT22;6376;48.182;-1.644;2023-04-26T06:43:51;14.10;76.40
12622;DHT22;6376;48.182;-1.644;2023-04-26T06:46:17;14.10;76.30
12622;DHT22;6376;48.182;-1.644;2023-04-26T06:48:43;14.10;76.30
12622;DHT22;6376;48.182;-1.644;2023-04-26T06:51:09;14.10;76.40
12622;DHT22;6376;48.182;-1.644;2023-04-26T06:53:35;14.10;76.40
12622;DHT22;6376;48.182;-1.644;2023-04-26T06:56:01;14.10;76.40
12622;DHT22;6376;48.182;-1.644;2023-04-26T06:58:27;14.10;76.50
12622;DHT22;6376;48.182;-1.644;2023-04-26T07:00:52;14.10;76.50
12622;DHT22;6376;48.182;-1.644;2023-04-26T07:03:18;14.10;76.50
12622;DHT22;6376;48.182;-1.644;2023-04-26T07:05:44;14.10;76.50
12622;DHT22;6376;48.182;-1.644;2023-04-26T07:08:10;14.10;77.30
12622;DHT22;6376;48.182;-1.644;2023-04-26T07:10:38;14.10;76.50
12622;DHT22;6376;48.182;-1.644;2023-04-26T07:13:03;14.10;76.60
12622;DHT22;6376;48.182;-1.644;2023-04-26T07:15:29;14.10;76.60
12622;DHT22;6376;48.182;-1.644;2023-04-26T07:17:55;14.10;76.60
12622;DHT22;6376;48.182;-1.644;2023-04-26T07:20:21;14.10;76.70
12622;DHT22;6376;48.182;-1.644;2023-04-26T07:22:48;14.10;76.70
12622;DHT22;6376;48.182;-1.644;2023-04-26T07:25:15;14.10;76.70
12622;DHT22;6376;48.182;-1.644;2023-04-26T07:27:41;14.10;76.70
12622;DHT22;6376;48.182;-1.644;2023-04-26T07:30:08;14.10;76.80
12622;DHT22;6376;48.182;-1.644;2023-04-26T07:32:34;14.10;76.70
12622;DHT22;6376;48.182;-1.644;2023-04-26T07:35:02;14.10;76.90
12622;DHT22;6376;48.182;-1.644;2023-04-26T07:37:29;14.10;76.70
12622;DHT22;6376;48.182;-1.644;2023-04-26T07:39:55;14.10;76.70
12622;DHT22;6376;48.182;-1.644;2023-04-26T07:42:21;14.10;76.80
12622;DHT22;6376;48.182;-1.644;2023-04-26T07:44:58;14.10;76.90
12622;DHT22;6376;48.182;-1.644;2023-04-26T07:47:36;14.10;76.70
12622;DHT22;6376;48.182;-1.644;2023-04-26T07:50:12;14.60;77.10
12622;DHT22;6376;48.182;-1.644;2023-04-26T07:52:38;14.10;76.90
12622;DHT22;6376;48.182;-1.644;2023-04-26T07:55:04;14.10;76.90
12622;DHT22;6376;48.182;-1.644;2023-04-26T07:57:31;14.10;76.90
12622;DHT22;6376;48.182;-1.644;2023-04-26T07:59:59;14.10;76.90
12622;DHT22;6376;48.182;-1.644;2023-04-26T08:02:25;14.10;76.90
12622;DHT22;6376;48.182;-1.644;2023-04-26T08:04:50;14.10;76.90
12622;DHT22;6376;48.182;-1.644;2023-04-26T08:07:20;14.10;76.80
12622;DHT22;6376;48.182;-1.644;2023-04-26T08:09:46;14.10;77.00
12622;DHT22;6376;48.182;-1.644;2023-04-26T08:12:13;14.10;77.00
12622;DHT22;6376;48.182;-1.644;2023-04-26T08:14:39;14.10;77.00
12622;DHT22;6376;48.182;-1.644;2023-04-26T08:17:06;14.10;77.00
12622;DHT22;6376;48.182;-1.644;2023-04-26T08:19:40;14.10;76.90
12622;DHT22;6376;48.182;-1.644;2023-04-26T08:22:06;14.10;77.00
12622;DHT22;6376;48.182;-1.644;2023-04-26T08:24:32;14.10;77.00
12622;DHT22;6376;48.182;-1.644;2023-04-26T08:26:57;14.10;77.00
12622;DHT22;6376;48.182;-1.644;2023-04-26T08:29:25;14.10;77.00
12622;DHT22;6376;48.182;-1.644;2023-04-26T08:31:51;14.10;77.00
12622;DHT22;6376;48.182;-1.644;2023-04-26T08:34:16;14.10;77.10
12622;DHT22;6376;48.182;-1.644;2023-04-26T08:36:42;14.10;77.00
12622;DHT22;6376;48.182;-1.644;2023-04-26T08:39:08;14.10;77.10
12622;DHT22;6376;48.182;-1.644;2023-04-26T08:41:44;14.10;77.00
12622;DHT22;6376;48.182;-1.644;2023-04-26T08:44:10;14.10;77.00
12622;DHT22;6376;48.182;-1.644;2023-04-26T08:49:44;14.10;77.00
12622;DHT22;6376;48.182;-1.644;2023-04-26T08:52:13;14.10;77.10
12622;DHT22;6376;48.182;-1.644;2023-04-26T08:54:40;14.10;77.30
12622;DHT22;6376;48.182;-1.644;2023-04-26T08:57:09;14.10;77.20
12622;DHT22;6376;48.182;-1.644;2023-04-26T08:59:36;14.10;77.20
12622;DHT22;6376;48.182;-1.644;2023-04-26T09:02:07;14.10;77.20
12622;DHT22;6376;48.182;-1.644;2023-04-26T09:04:34;14.10;77.20
12622;DHT22;6376;48.182;-1.644;2023-04-26T09:07:02;14.10;77.20
12622;DHT22;6376;48.182;-1.644;2023-04-26T09:09:35;14.10;77.20
12622;DHT22;6376;48.182;-1.644;2023-04-26T09:12:03;14.10;77.30
12622;DHT22;6376;48.182;-1.644;2023-04-26T09:14:29;14.10;77.20
12622;DHT22;6376;48.182;-1.644;2023-04-26T09:16:55;14.10;77.30
12622;DHT22;6376;48.182;-1.644;2023-04-26T09:19:38;14.10;77.30
12622;DHT22;6376;48.182;-1.644;2023-04-26T09:22:04;14.10;77.30
12622;DHT22;6376;48.182;-1.644;2023-04-26T09:27:12;14.10;77.30
12622;DHT22;6376;48.182;-1.644;2023-04-26T09:29:38;14.10;77.40
12622;DHT22;6376;48.182;-1.644;2023-04-26T09:32:04;14.10;77.20
12622;DHT22;6376;48.182;-1.644;2023-04-26T09:34:43;14.10;77.30
12622;DHT22;6376;48.182;-1.644;2023-04-26T09:37:11;14.10;77.40
12622;DHT22;6376;48.182;-1.644;2023-04-26T09:39:39;14.20;77.20
12622;DHT22;6376;48.182;-1.644;2023-04-26T09:42:09;14.20;77.40
12622;DHT22;6376;48.182;-1.644;2023-04-26T09:44:36;14.20;77.20
12622;DHT22;6376;48.182;-1.644;2023-04-26T09:47:07;14.20;77.20
12622;DHT22;6376;48.182;-1.644;2023-04-26T09:49:50;14.20;77.30
12622;DHT22;6376;48.182;-1.644;2023-04-26T09:52:17;14.20;77.20
12622;DHT22;6376;48.182;-1.644;2023-04-26T09:54:48;14.20;77.10
12622;DHT22;6376;48.182;-1.644;2023-04-26T09:57:17;14.20;77.10
12622;DHT22;6376;48.182;-1.644;2023-04-26T09:59:50;14.20;77.00
12622;DHT22;6376;48.182;-1.644;2023-04-26T10:02:23;14.20;77.10
12622;DHT22;6376;48.182;-1.644;2023-04-26T10:04:51;14.20;77.30
12622;DHT22;6376;48.182;-1.644;2023-04-26T10:07:19;14.20;77.20
12622;DHT22;6376;48.182;-1.644;2023-04-26T10:09:45;14.20;77.40
12622;DHT22;6376;48.182;-1.644;2023-04-26T10:12:16;14.20;77.20
12622;DHT22;6376;48.182;-1.644;2023-04-26T10:14:43;14.20;77.70
12622;DHT22;6376;48.182;-1.644;2023-04-26T10:17:09;14.20;77.40
12622;DHT22;6376;48.182;-1.644;2023-04-26T10:19:37;14.20;77.50
12622;DHT22;6376;48.182;-1.644;2023-04-26T10:22:08;14.20;77.30
12622;DHT22;6376;48.182;-1.644;2023-04-26T10:24:35;14.30;78.20
12622;DHT22;6376;48.182;-1.644;2023-04-26T10:27:01;14.30;77.30
12622;DHT22;6376;48.182;-1.644;2023-04-26T10:32:21;14.30;77.60
12622;DHT22;6376;48.182;-1.644;2023-04-26T10:35:09;14.30;77.60
12622;DHT22;6376;48.182;-1.644;2023-04-26T10:40:39;14.30;77.60
12622;DHT22;6376;48.182;-1.644;2023-04-26T10:45:35;14.30;77.40
12622;DHT22;6376;48.182;-1.644;2023-04-26T10:59:14;14.30;77.60
12622;DHT22;6376;48.182;-1.644;2023-04-26T11:01:44;14.30;77.70
12622;DHT22;6376;48.182;-1.644;2023-04-26T11:04:11;14.30;77.50
12622;DHT22;6376;48.182;-1.644;2023-04-26T11:06:53;14.40;77.80
12622;DHT22;6376;48.182;-1.644;2023-04-26T11:09:38;14.40;77.90
12622;DHT22;6376;48.182;-1.644;2023-04-26T11:12:12;14.40;77.90
12622;DHT22;6376;48.182;-1.644;2023-04-26T11:14:39;14.50;77.90
12622;DHT22;6376;48.182;-1.644;2023-04-26T11:17:07;14.50;77.60
12622;DHT22;6376;48.182;-1.644;2023-04-26T11:19:33;14.60;77.70
12622;DHT22;6376;48.182;-1.644;2023-04-26T11:21:59;14.60;77.80
12622;DHT22;6376;48.182;-1.644;2023-04-26T11:24:32;14.70;77.50
12622;DHT22;6376;48.182;-1.644;2023-04-26T11:26:58;14.80;77.20
12622;DHT22;6376;48.182;-1.644;2023-04-26T11:29:24;14.90;76.80
12622;DHT22;6376;48.182;-1.644;2023-04-26T11:31:54;15.00;76.00
12622;DHT22;6376;48.182;-1.644;2023-04-26T11:34:32;15.00;75.80
12622;DHT22;6376;48.182;-1.644;2023-04-26T11:37:00;15.00;75.80
12622;DHT22;6376;48.182;-1.644;2023-04-26T11:39:26;14.90;76.00
12622;DHT22;6376;48.182;-1.644;2023-04-26T11:42:05;14.90;75.30
12622;DHT22;6376;48.182;-1.644;2023-04-26T11:44:31;14.90;75.90
12622;DHT22;6376;48.182;-1.644;2023-04-26T11:46:59;14.90;75.70
12622;DHT22;6376;48.182;-1.644;2023-04-26T11:49:26;14.90;75.60
12622;DHT22;6376;48.182;-1.644;2023-04-26T11:51:52;14.90;76.00
12622;DHT22;6376;48.182;-1.644;2023-04-26T11:54:29;14.90;77.20
12622;DHT22;6376;48.182;-1.644;2023-04-26T11:56:55;14.80;76.90
12622;DHT22;6376;48.182;-1.644;2023-04-26T11:59:28;14.80;76.60
12622;DHT22;6376;48.182;-1.644;2023-04-26T12:01:57;14.80;76.90
12622;DHT22;6376;48.182;-1.644;2023-04-26T12:04:28;14.80;77.70
12622;DHT22;6376;48.182;-1.644;2023-04-26T12:06:55;14.80;77.40
12622;DHT22;6376;48.182;-1.644;2023-04-26T12:09:29;14.70;78.10
12622;DHT22;6376;48.182;-1.644;2023-04-26T12:11:59;14.70;78.70
12622;DHT22;6376;48.182;-1.644;2023-04-26T12:14:35;14.70;78.70
12622;DHT22;6376;48.182;-1.644;2023-04-26T12:17:02;14.70;79.10
12622;DHT22;6376;48.182;-1.644;2023-04-26T12:19:35;14.80;79.10
12622;DHT22;6376;48.182;-1.644;2023-04-26T12:22:02;14.80;78.70
12622;DHT22;6376;48.182;-1.644;2023-04-26T12:24:29;14.80;78.60
12622;DHT22;6376;48.182;-1.644;2023-04-26T12:26:58;14.80;78.70
12622;DHT22;6376;48.182;-1.644;2023-04-26T12:29:23;14.80;78.70
12622;DHT22;6376;48.182;-1.644;2023-04-26T12:31:49;14.80;79.40
12622;DHT22;6376;48.182;-1.644;2023-04-26T12:34:15;14.70;79.30
12622;DHT22;6376;48.182;-1.644;2023-04-26T12:36:41;14.70;79.30
12622;DHT22;6376;48.182;-1.644;2023-04-26T12:39:10;14.70;79.00
12622;DHT22;6376;48.182;-1.644;2023-04-26T12:41:38;14.70;79.00
12622;DHT22;6376;48.182;-1.644;2023-04-26T12:44:04;14.80;78.60
12622;DHT22;6376;48.182;-1.644;2023-04-26T12:46:30;14.80;77.70
12622;DHT22;6376;48.182;-1.644;2023-04-26T12:48:56;14.90;77.50
12622;DHT22;6376;48.182;-1.644;2023-04-26T12:51:21;14.90;77.00
12622;DHT22;6376;48.182;-1.644;2023-04-26T12:53:50;14.90;76.40
12622;DHT22;6376;48.182;-1.644;2023-04-26T12:56:16;14.90;76.20
12622;DHT22;6376;48.182;-1.644;2023-04-26T12:58:42;14.90;75.90
12622;DHT22;6376;48.182;-1.644;2023-04-26T13:01:08;14.90;75.60
12622;DHT22;6376;48.182;-1.644;2023-04-26T13:03:34;14.90;75.50
12622;DHT22;6376;48.182;-1.644;2023-04-26T13:06:00;14.90;75.30
12622;DHT22;6376;48.182;-1.644;2023-04-26T13:08:29;15.00;75.50
12622;DHT22;6376;48.182;-1.644;2023-04-26T13:10:55;15.00;75.60
12622;DHT22;6376;48.182;-1.644;2023-04-26T13:13:21;15.00;75.10
12622;DHT22;6376;48.182;-1.644;2023-04-26T13:15:46;15.10;74.90
12622;DHT22;6376;48.182;-1.644;2023-04-26T13:18:12;15.10;74.90
12622;DHT22;6376;48.182;-1.644;2023-04-26T13:20:40;15.10;74.80
12622;DHT22;6376;48.182;-1.644;2023-04-26T13:23:05;15.00;74.60
12622;DHT22;6376;48.182;-1.644;2023-04-26T13:25:31;15.00;74.70
12622;DHT22;6376;48.182;-1.644;2023-04-26T13:27:57;15.00;74.90
12622;DHT22;6376;48.182;-1.644;2023-04-26T13:30:23;15.00;75.20
12622;DHT22;6376;48.182;-1.644;2023-04-26T13:32:48;15.00;75.60
12622;DHT22;6376;48.182;-1.644;2023-04-26T13:35:14;14.90;76.30
12622;DHT22;6376;48.182;-1.644;2023-04-26T13:37:40;14.90;75.60
12622;DHT22;6376;48.182;-1.644;2023-04-26T13:40:07;15.00;75.70
12622;DHT22;6376;48.182;-1.644;2023-04-26T13:42:35;14.90;75.70
12622;DHT22;6376;48.182;-1.644;2023-04-26T13:45:01;14.90;75.50
12622;DHT22;6376;48.182;-1.644;2023-04-26T13:47:30;14.90;75.60
12622;DHT22;6376;48.182;-1.644;2023-04-26T13:49:56;14.90;75.80
12622;DHT22;6376;48.182;-1.644;2023-04-26T13:52:22;14.90;75.80
12622;DHT22;6376;48.182;-1.644;2023-04-26T13:54:48;14.90;75.90
12622;DHT22;6376;48.182;-1.644;2023-04-26T13:57:14;14.90;76.50
12622;DHT22;6376;48.182;-1.644;2023-04-26T13:59:40;14.90;76.50
12622;DHT22;6376;48.182;-1.644;2023-04-26T14:02:06;15.00;76.30
12622;DHT22;6376;48.182;-1.644;2023-04-26T14:04:31;15.00;76.00
12622;DHT22;6376;48.182;-1.644;2023-04-26T14:06:57;15.10;75.60
12622;DHT22;6376;48.182;-1.644;2023-04-26T14:09:23;15.10;75.50
12622;DHT22;6376;48.182;-1.644;2023-04-26T14:11:49;15.10;75.80
12622;DHT22;6376;48.182;-1.644;2023-04-26T14:14:14;15.10;75.60
12622;DHT22;6376;48.182;-1.644;2023-04-26T14:16:40;15.10;75.30
12622;DHT22;6376;48.182;-1.644;2023-04-26T14:19:06;15.10;75.20
12622;DHT22;6376;48.182;-1.644;2023-04-26T14:21:32;15.10;75.90
12622;DHT22;6376;48.182;-1.644;2023-04-26T14:23:57;15.10;75.10
12622;DHT22;6376;48.182;-1.644;2023-04-26T14:26:26;15.10;76.00
12622;DHT22;6376;48.182;-1.644;2023-04-26T14:28:52;15.10;75.50
12622;DHT22;6376;48.182;-1.644;2023-04-26T14:31:17;15.10;75.60
12622;DHT22;6376;48.182;-1.644;2023-04-26T14:33:44;15.10;76.10
12622;DHT22;6376;48.182;-1.644;2023-04-26T14:36:10;15.10;75.70
12622;DHT22;6376;48.182;-1.644;2023-04-26T14:38:40;15.10;75.50
12622;DHT22;6376;48.182;-1.644;2023-04-26T14:41:07;15.10;75.70
12622;DHT22;6376;48.182;-1.644;2023-04-26T14:43:32;15.10;75.50
12622;DHT22;6376;48.182;-1.644;2023-04-26T14:45:58;15.10;75.50
12622;DHT22;6376;48.182;-1.644;2023-04-26T14:48:24;15.10;75.50
12622;DHT22;6376;48.182;-1.644;2023-04-26T14:50:57;15.10;75.90
12622;DHT22;6376;48.182;-1.644;2023-04-26T14:53:25;15.10;75.60
12622;DHT22;6376;48.182;-1.644;2023-04-26T14:55:57;15.20;75.60
12622;DHT22;6376;48.182;-1.644;2023-04-26T14:58:23;15.20;75.20
12622;DHT22;6376;48.182;-1.644;2023-04-26T15:00:49;15.20;75.00
12622;DHT22;6376;48.182;-1.644;2023-04-26T15:03:15;15.20;75.30
12622;DHT22;6376;48.182;-1.644;2023-04-26T15:05:44;15.20;75.60
12622;DHT22;6376;48.182;-1.644;2023-04-26T15:08:10;15.20;75.30
12622;DHT22;6376;48.182;-1.644;2023-04-26T15:10:36;15.20;75.30
12622;DHT22;6376;48.182;-1.644;2023-04-26T15:13:01;15.20;74.90
12622;DHT22;6376;48.182;-1.644;2023-04-26T15:15:27;15.20;74.90
12622;DHT22;6376;48.182;-1.644;2023-04-26T15:17:53;15.30;74.70
12622;DHT22;6376;48.182;-1.644;2023-04-26T15:20:19;15.30;75.00
12622;DHT22;6376;48.182;-1.644;2023-04-26T15:22:45;15.30;75.40
12622;DHT22;6376;48.182;-1.644;2023-04-26T15:25:11;15.20;75.00
12622;DHT22;6376;48.182;-1.644;2023-04-26T15:27:37;15.20;75.30
12622;DHT22;6376;48.182;-1.644;2023-04-26T15:30:04;15.20;74.90
12622;DHT22;6376;48.182;-1.644;2023-04-26T15:32:30;15.30;75.20
12622;DHT22;6376;48.182;-1.644;2023-04-26T15:35:05;15.30;74.90
12622;DHT22;6376;48.182;-1.644;2023-04-26T15:37:31;15.30;74.90
12622;DHT22;6376;48.182;-1.644;2023-04-26T15:39:57;15.30;75.20
12622;DHT22;6376;48.182;-1.644;2023-04-26T15:42:23;15.30;74.90
12622;DHT22;6376;48.182;-1.644;2023-04-26T15:44:48;15.30;74.90
12622;DHT22;6376;48.182;-1.644;2023-04-26T15:47:14;15.30;74.70
12622;DHT22;6376;48.182;-1.644;2023-04-26T15:49:40;15.30;74.70
12622;DHT22;6376;48.182;-1.644;2023-04-26T15:52:05;15.30;74.60
12622;DHT22;6376;48.182;-1.644;2023-04-26T15:54:31;15.30;74.60